createdAt,value
2022-10-01T00:02:09.366Z,3.50
2022-10-01T00:04:37.494Z,3.60
2022-10-01T00:07:09.757Z,3.70
2022-10-01T00:09:36.682Z,3.70
2022-10-01T00:12:03.669Z,3.70
2022-10-01T00:14:30.487Z,3.80
2022-10-01T00:16:57.287Z,3.80
2022-10-01T00:19:24.058Z,3.70
2022-10-01T00:21:50.952Z,3.80
2022-10-01T00:24:17.751Z,3.80
2022-10-01T00:26:45.533Z,3.80
2022-10-01T00:29:14.602Z,3.80
2022-10-01T00:31:41.922Z,3.80
2022-10-01T00:34:12.438Z,3.90
2022-10-01T00:36:39.856Z,4.00
2022-10-01T00:39:06.608Z,4.10
2022-10-01T00:41:35.059Z,4.10
2022-10-01T00:44:23.823Z,4.20
2022-10-01T00:46:55.363Z,4.20
2022-10-01T00:49:26.368Z,4.10
2022-10-01T00:51:57.945Z,4.10
2022-10-01T00:54:32.779Z,4.20
2022-10-01T00:57:02.437Z,4.10
2022-10-01T00:59:30.855Z,4.00
2022-10-01T01:01:57.792Z,4.10
2022-10-01T01:04:24.614Z,4.00
2022-10-01T01:06:58.305Z,4.00
2022-10-01T01:09:40.321Z,4.00
2022-10-01T01:12:21.152Z,4.00
2022-10-01T01:15:18.104Z,4.00
2022-10-01T01:18:02.653Z,4.20
2022-10-01T01:20:40.102Z,4.40
2022-10-01T01:23:16.096Z,4.40
2022-10-01T01:25:53.782Z,4.60
2022-10-01T01:28:33.881Z,4.60
2022-10-01T01:31:09.245Z,4.70
2022-10-01T01:33:40.868Z,4.70
2022-10-01T01:36:23.328Z,4.70
2022-10-01T01:38:54.647Z,4.80
2022-10-01T01:41:24.382Z,4.80
2022-10-01T01:43:56.427Z,4.80
2022-10-01T01:46:33.769Z,4.80
2022-10-01T01:49:02.140Z,4.80
2022-10-01T01:51:53.951Z,4.90
2022-10-01T01:54:20.884Z,4.80
2022-10-01T01:56:51.637Z,4.90
2022-10-01T01:59:19.453Z,4.90
2022-10-01T02:01:49.219Z,4.90
2022-10-01T02:04:44.303Z,4.90
2022-10-01T02:07:32.601Z,4.70
2022-10-01T02:10:37.038Z,4.70
2022-10-01T02:13:24.009Z,4.90
2022-10-01T02:16:25.302Z,4.90
2022-10-01T02:19:13.114Z,4.90
2022-10-01T02:21:52.257Z,4.90
2022-10-01T02:24:33.061Z,4.90
2022-10-01T02:27:04.475Z,5.00
2022-10-01T02:29:32.340Z,5.00
2022-10-01T02:32:02.130Z,5.00
2022-10-01T02:34:32.820Z,4.90
2022-10-01T02:37:03.960Z,5.00
2022-10-01T02:39:32.925Z,5.00
2022-10-01T02:42:00.665Z,5.10
2022-10-01T02:44:40.485Z,5.00
2022-10-01T02:47:19.710Z,5.00
2022-10-01T02:49:47.710Z,5.00
2022-10-01T02:52:24.556Z,4.90
2022-10-01T02:54:58.015Z,4.90
2022-10-01T02:57:27.446Z,4.90
2022-10-01T02:59:59.741Z,4.80
2022-10-01T03:02:31.595Z,4.80
2022-10-01T03:04:59.545Z,4.90
2022-10-01T03:07:31.229Z,5.00
2022-10-01T03:09:58.060Z,5.10
2022-10-01T03:12:27.526Z,5.00
2022-10-01T03:14:54.231Z,5.10
2022-10-01T03:17:21.459Z,5.10
2022-10-01T03:19:50.834Z,5.00
2022-10-01T03:22:22.695Z,5.10
2022-10-01T03:24:55.387Z,5.20
2022-10-01T03:27:22.754Z,5.20
2022-10-01T03:29:49.879Z,5.10
2022-10-01T03:32:17.289Z,5.20
2022-10-01T03:34:47.355Z,5.20
2022-10-01T03:37:14.109Z,5.20
2022-10-01T03:39:40.839Z,5.20
2022-10-01T03:42:10.760Z,5.20
2022-10-01T03:44:37.494Z,5.20
2022-10-01T03:47:04.224Z,5.20
2022-10-01T03:49:36.116Z,5.20
2022-10-01T03:52:04.097Z,5.10
2022-10-01T03:54:31.288Z,5.20
2022-10-01T03:57:00.488Z,5.10
2022-10-01T03:59:27.416Z,5.10
2022-10-01T04:01:54.472Z,5.10
2022-10-01T04:04:26.032Z,5.00
2022-10-01T04:06:52.817Z,5.00
2022-10-01T04:09:19.489Z,5.10
2022-10-01T04:11:48.712Z,5.00
2022-10-01T04:14:15.437Z,5.10
2022-10-01T04:16:44.892Z,5.00
2022-10-01T04:19:11.609Z,5.00
2022-10-01T04:21:38.998Z,5.10
2022-10-01T04:24:05.988Z,5.10
2022-10-01T04:26:40.011Z,5.10
2022-10-01T04:29:09.945Z,5.10
2022-10-01T04:31:37.062Z,5.10
2022-10-01T04:34:10.656Z,5.00
2022-10-01T04:36:37.406Z,5.10
2022-10-01T04:39:04.462Z,5.00
2022-10-01T04:41:34.309Z,5.00
2022-10-01T04:44:01.342Z,5.10
2022-10-01T04:46:31.768Z,5.00
2022-10-01T04:48:58.673Z,5.00
2022-10-01T04:51:26.306Z,5.10
2022-10-01T04:53:53.078Z,5.00
2022-10-01T04:56:22.252Z,5.20
2022-10-01T04:58:49.075Z,5.20
2022-10-01T05:01:16.358Z,5.20
2022-10-01T05:03:43.228Z,5.30
2022-10-01T05:06:10.838Z,5.20
2022-10-01T05:08:39.351Z,5.20
2022-10-01T05:11:06.249Z,5.20
2022-10-01T05:13:35.131Z,5.10
2022-10-01T05:16:06.349Z,5.20
2022-10-01T05:18:33.446Z,5.10
2022-10-01T05:21:05.603Z,5.20
2022-10-01T05:23:33.184Z,5.10
2022-10-01T05:26:04.191Z,5.10
2022-10-01T05:28:31.778Z,5.20
2022-10-01T05:31:03.355Z,5.10
2022-10-01T05:33:34.162Z,5.10
2022-10-01T05:36:01.141Z,5.20
2022-10-01T05:38:27.822Z,5.50
2022-10-01T05:40:56.092Z,5.50
2022-10-01T05:43:23.902Z,5.40
2022-10-01T05:45:51.399Z,5.40
2022-10-01T05:48:18.333Z,5.40
2022-10-01T05:50:45.074Z,5.50
2022-10-01T05:53:15.699Z,5.50
2022-10-01T05:55:42.949Z,5.60
2022-10-01T05:58:12.204Z,5.60
2022-10-01T06:00:42.930Z,5.60
2022-10-01T06:03:13.553Z,5.60
2022-10-01T06:05:42.576Z,5.70
2022-10-01T06:08:11.391Z,5.70
2022-10-01T06:10:41.040Z,5.70
2022-10-01T06:13:13.392Z,5.60
2022-10-01T06:15:42.318Z,5.70
2022-10-01T06:18:10.881Z,5.70
2022-10-01T06:20:38.755Z,5.70
2022-10-01T06:23:10.416Z,5.70
2022-10-01T06:25:39.432Z,5.80
2022-10-01T06:28:09.372Z,5.80
2022-10-01T06:30:38.136Z,5.70
2022-10-01T06:33:08.702Z,5.70
2022-10-01T06:35:40.162Z,5.80
2022-10-01T06:38:07.981Z,5.80
2022-10-01T06:40:37.025Z,5.80
2022-10-01T06:43:04.209Z,5.70
2022-10-01T06:45:38.635Z,5.80
2022-10-01T06:48:08.802Z,5.80
2022-10-01T06:50:35.818Z,5.80
2022-10-01T06:53:02.695Z,5.70
2022-10-01T06:55:32.134Z,5.80
2022-10-01T06:58:01.346Z,5.80
2022-10-01T07:00:29.619Z,5.80
2022-10-01T07:02:56.734Z,5.90
2022-10-01T07:05:24.394Z,5.90
2022-10-01T07:07:51.630Z,5.80
2022-10-01T07:10:20.819Z,5.90
2022-10-01T07:12:49.002Z,5.90
2022-10-01T07:15:17.481Z,5.90
2022-10-01T07:17:50.157Z,6.00
2022-10-01T07:20:21.037Z,5.90
2022-10-01T07:22:48.760Z,5.90
2022-10-01T07:25:15.681Z,6.00
2022-10-01T07:27:42.514Z,6.00
2022-10-01T07:30:10.156Z,6.10
2022-10-01T07:32:36.953Z,5.90
2022-10-01T07:35:06.812Z,6.10
2022-10-01T07:37:38.378Z,6.10
2022-10-01T07:40:07.664Z,6.10
2022-10-01T07:42:35.555Z,6.10
2022-10-01T07:45:08.018Z,6.20
2022-10-01T07:47:35.195Z,6.20
2022-10-01T07:50:04.208Z,6.20
2022-10-01T07:52:31.165Z,6.20
2022-10-01T07:54:58.096Z,6.20
2022-10-01T07:57:24.952Z,6.20
2022-10-01T07:59:55.709Z,6.10
2022-10-01T08:02:22.967Z,6.10
2022-10-01T08:05:08.933Z,6.20
2022-10-01T08:07:36.204Z,6.10
2022-10-01T08:10:04.640Z,6.20
2022-10-01T08:12:34.110Z,6.20
2022-10-01T08:15:07.750Z,6.20
2022-10-01T08:17:39.895Z,6.20
2022-10-01T08:20:10.663Z,6.30
2022-10-01T08:22:41.830Z,6.20
2022-10-01T08:25:09.915Z,6.30
2022-10-01T08:27:36.713Z,6.30
2022-10-01T08:30:09.266Z,6.20
2022-10-01T08:32:36.245Z,6.30
2022-10-01T08:35:08.921Z,6.30
2022-10-01T08:37:35.658Z,6.30
2022-10-01T08:40:02.446Z,6.40
2022-10-01T08:42:53.231Z,6.50
2022-10-01T08:45:45.636Z,6.50
2022-10-01T08:48:25.389Z,6.50
2022-10-01T08:51:03.094Z,6.50
2022-10-01T08:53:49.455Z,6.60
2022-10-01T08:56:24.702Z,6.70
2022-10-01T08:59:00.322Z,6.80
2022-10-01T09:01:28.466Z,6.90
2022-10-01T09:03:56.293Z,7.00
2022-10-01T09:06:30.449Z,7.00
2022-10-01T09:08:57.116Z,7.00
2022-10-01T09:11:39.145Z,7.00
2022-10-01T09:14:40.144Z,7.20
2022-10-01T09:17:19.934Z,7.40
2022-10-01T09:19:58.803Z,7.60
2022-10-01T09:22:42.642Z,7.70
2022-10-01T09:25:10.361Z,7.90
2022-10-01T09:27:39.140Z,7.80
2022-10-01T09:30:16.441Z,7.70
2022-10-01T09:32:55.546Z,7.70
2022-10-01T09:35:46.103Z,7.50
2022-10-01T09:38:31.515Z,7.50
2022-10-01T09:40:59.116Z,7.50
2022-10-01T09:43:46.615Z,7.50
2022-10-01T09:46:21.215Z,7.70
2022-10-01T09:48:50.148Z,7.70
2022-10-01T09:51:22.428Z,7.80
2022-10-01T09:54:26.796Z,8.00
2022-10-01T09:57:01.448Z,8.00
2022-10-01T09:59:36.041Z,8.20
2022-10-01T10:02:15.338Z,8.50
2022-10-01T10:04:42.202Z,8.80
2022-10-01T10:07:18.831Z,8.90
2022-10-01T10:09:48.021Z,9.10
2022-10-01T10:12:30.927Z,9.20
2022-10-01T10:15:09.943Z,9.30
2022-10-01T10:17:40.682Z,9.50
2022-10-01T10:20:33.461Z,9.80
2022-10-01T10:23:20.537Z,10.10
2022-10-01T10:25:56.826Z,10.40
2022-10-01T10:28:24.410Z,10.40
2022-10-01T10:30:54.375Z,10.40
2022-10-01T10:33:26.238Z,10.40
2022-10-01T10:36:05.353Z,10.40
2022-10-01T10:38:34.700Z,10.30
2022-10-01T10:41:03.785Z,10.10
2022-10-01T10:43:36.660Z,10.00
2022-10-01T10:46:04.284Z,9.80
2022-10-01T10:48:39.808Z,9.80
2022-10-01T10:51:06.693Z,9.70
2022-10-01T10:53:44.284Z,9.80
2022-10-01T10:56:23.604Z,9.70
2022-10-01T10:58:53.737Z,10.00
2022-10-01T11:01:28.570Z,10.30
2022-10-01T11:04:00.291Z,10.50
2022-10-01T11:06:30.225Z,10.60
2022-10-01T11:09:04.816Z,10.70
2022-10-01T11:12:10.458Z,10.90
2022-10-01T11:14:51.599Z,10.80
2022-10-01T11:17:55.216Z,11.10
2022-10-01T11:20:51.979Z,11.10
2022-10-01T11:23:52.444Z,11.30
2022-10-01T11:26:38.274Z,11.30
2022-10-01T11:29:46.705Z,11.40
2022-10-01T11:32:24.700Z,11.90
2022-10-01T11:35:19.546Z,12.40
2022-10-01T11:38:23.657Z,12.80
2022-10-01T11:41:12.602Z,13.60
2022-10-01T11:43:42.021Z,14.00
2022-10-01T11:46:18.423Z,14.20
2022-10-01T11:48:51.029Z,14.60
2022-10-01T11:51:22.776Z,14.80
2022-10-01T11:53:55.612Z,15.00
2022-10-01T11:56:55.057Z,15.10
2022-10-01T11:59:40.310Z,15.60
2022-10-01T12:02:08.132Z,15.70
2022-10-01T12:04:46.240Z,15.80
2022-10-01T12:07:36.582Z,15.90
2022-10-01T12:10:20.079Z,16.30
2022-10-01T12:13:19.733Z,16.20
2022-10-01T12:15:46.511Z,16.10
2022-10-01T12:18:24.575Z,15.90
2022-10-01T12:20:54.629Z,15.90
2022-10-01T12:23:57.288Z,15.80
2022-10-01T12:26:43.121Z,15.80
2022-10-01T12:29:35.775Z,15.30
2022-10-01T12:32:05.607Z,14.80
2022-10-01T12:35:11.392Z,14.30
2022-10-01T12:37:46.416Z,14.30
2022-10-01T12:40:22.367Z,14.50
2022-10-01T12:42:55.070Z,14.50
2022-10-01T12:45:33.885Z,14.30
2022-10-01T12:48:07.279Z,14.10
2022-10-01T12:51:14.046Z,13.80
2022-10-01T12:53:46.215Z,13.70
2022-10-01T12:56:18.445Z,13.90
2022-10-01T12:58:52.144Z,14.00
2022-10-01T13:01:43.267Z,14.20
2022-10-01T13:04:27.017Z,14.30
2022-10-01T13:07:05.911Z,13.90
2022-10-01T13:09:38.921Z,13.80
2022-10-01T13:12:31.441Z,13.70
2022-10-01T13:14:58.929Z,13.40
2022-10-01T13:17:49.383Z,13.20
2022-10-01T13:20:34.015Z,13.10
2022-10-01T13:23:06.399Z,13.00
2022-10-01T13:25:50.389Z,12.90
2022-10-01T13:28:28.279Z,12.80
2022-10-01T13:31:01.760Z,12.80
2022-10-01T13:33:31.963Z,12.80
2022-10-01T13:36:03.632Z,13.10
2022-10-01T13:38:43.773Z,13.60
2022-10-01T13:41:23.944Z,14.10
2022-10-01T13:44:02.490Z,14.30
2022-10-01T13:46:32.191Z,14.70
2022-10-01T13:49:07.030Z,15.20
2022-10-01T13:51:36.275Z,15.60
2022-10-01T13:54:07.866Z,15.60
2022-10-01T13:56:37.512Z,15.60
2022-10-01T13:59:25.058Z,15.40
2022-10-01T14:01:51.906Z,15.10
2022-10-01T14:04:36.151Z,14.60
2022-10-01T14:07:16.259Z,14.00
2022-10-01T14:09:53.229Z,14.10
2022-10-01T14:12:45.982Z,14.20
2022-10-01T14:15:45.006Z,14.70
2022-10-01T14:18:18.555Z,15.10
2022-10-01T14:21:16.087Z,15.20
2022-10-01T14:24:05.159Z,15.20
2022-10-01T14:27:07.951Z,15.20
2022-10-01T14:29:56.315Z,15.30
2022-10-01T14:33:03.966Z,15.30
2022-10-01T14:35:40.874Z,15.30
2022-10-01T14:38:17.193Z,15.00
2022-10-01T14:40:46.862Z,14.70
2022-10-01T14:43:28.972Z,14.20
2022-10-01T14:46:06.724Z,13.90
2022-10-01T14:48:37.695Z,13.60
2022-10-01T14:51:07.299Z,13.50
2022-10-01T14:53:37.579Z,13.50
2022-10-01T14:56:12.169Z,13.40
2022-10-01T14:58:43.951Z,13.40
2022-10-01T15:01:31.799Z,13.30
2022-10-01T15:03:58.698Z,13.00
2022-10-01T15:06:29.617Z,12.70
2022-10-01T15:09:10.724Z,12.50
2022-10-01T15:11:44.280Z,12.00
2022-10-01T15:14:24.177Z,11.70
2022-10-01T15:16:53.883Z,11.60
2022-10-01T15:19:24.931Z,11.40
2022-10-01T15:21:55.545Z,11.40
2022-10-01T15:24:40.234Z,11.40
2022-10-01T15:27:09.957Z,11.20
2022-10-01T15:29:38.745Z,10.90
2022-10-01T15:32:05.802Z,10.70
2022-10-01T15:34:33.134Z,10.60
2022-10-01T15:37:01.015Z,10.40
2022-10-01T15:39:32.505Z,10.30
2022-10-01T15:42:05.495Z,10.30
2022-10-01T15:44:46.313Z,10.20
2022-10-01T15:47:25.415Z,10.20
2022-10-01T15:50:09.972Z,10.10
2022-10-01T15:52:52.045Z,10.00
2022-10-01T15:55:28.101Z,10.00
2022-10-01T15:58:11.566Z,9.90
2022-10-01T16:00:50.077Z,9.80
2022-10-01T16:03:24.056Z,9.70
2022-10-01T16:05:54.905Z,9.70
2022-10-01T16:08:24.434Z,9.60
2022-10-01T16:11:13.174Z,9.50
2022-10-01T16:13:44.650Z,9.20
2022-10-01T16:16:19.387Z,9.30
2022-10-01T16:18:53.983Z,9.20
2022-10-01T16:21:24.365Z,9.10
2022-10-01T16:23:53.704Z,9.10
2022-10-01T16:26:32.181Z,9.00
2022-10-01T16:29:22.157Z,9.00
2022-10-01T16:31:57.901Z,8.90
2022-10-01T16:34:29.571Z,8.80
2022-10-01T16:36:56.359Z,8.80
2022-10-01T16:39:25.796Z,8.70
2022-10-01T16:42:19.222Z,8.70
2022-10-01T16:44:42.319Z,8.80
2022-10-01T16:47:14.155Z,8.80
2022-10-01T16:49:41.357Z,8.90
2022-10-01T16:52:16.469Z,8.90
2022-10-01T16:54:45.003Z,9.00
2022-10-01T16:57:11.723Z,9.10
2022-10-01T16:59:39.008Z,9.10
2022-10-01T17:02:10.324Z,9.30
2022-10-01T17:04:37.156Z,9.30
2022-10-01T17:07:06.094Z,9.30
2022-10-01T17:09:33.156Z,9.30
2022-10-01T17:12:01.670Z,9.30
2022-10-01T17:14:28.861Z,9.40
2022-10-01T17:16:55.647Z,9.40
2022-10-01T17:19:22.410Z,9.40
2022-10-01T17:21:49.108Z,9.40
2022-10-01T17:24:15.892Z,9.30
2022-10-01T17:26:45.320Z,9.30
2022-10-01T17:29:12.818Z,9.20
2022-10-01T17:31:41.109Z,9.10
2022-10-01T17:34:08.551Z,9.10
2022-10-01T17:36:37.741Z,9.10
2022-10-01T17:39:07.011Z,9.00
2022-10-01T17:41:33.873Z,9.00
2022-10-01T17:44:00.771Z,8.90
2022-10-01T17:46:28.804Z,8.90
2022-10-01T17:48:57.868Z,8.90
2022-10-01T17:51:26.874Z,8.80
2022-10-01T17:53:56.325Z,8.80
2022-10-01T17:56:27.741Z,8.90
2022-10-01T17:58:56.878Z,9.10
2022-10-01T18:01:23.958Z,9.00
2022-10-01T18:03:55.634Z,9.10
2022-10-01T18:06:23.926Z,9.00
2022-10-01T18:08:55.902Z,8.90
2022-10-01T18:11:24.871Z,8.70
2022-10-01T18:13:54.253Z,8.80
2022-10-01T18:16:21.896Z,8.70
2022-10-01T18:21:48.315Z,8.50
2022-10-01T18:24:16.050Z,8.50
2022-10-01T18:26:45.553Z,8.40
2022-10-01T18:29:19.045Z,8.50
2022-10-01T18:31:45.916Z,8.50
2022-10-01T18:34:25.203Z,8.50
2022-10-01T18:37:06.941Z,8.60
2022-10-01T18:39:45.630Z,8.50
2022-10-01T18:42:17.326Z,8.40
2022-10-01T18:44:46.416Z,8.70
2022-10-01T18:47:56.536Z,8.40
2022-10-01T18:50:50.623Z,8.30
2022-10-01T18:53:29.369Z,8.20
2022-10-01T18:56:18.005Z,8.20
2022-10-01T18:58:55.080Z,8.10
2022-10-01T19:01:27.887Z,8.00
2022-10-01T19:04:25.473Z,8.00
2022-10-01T19:07:46.790Z,8.00
2022-10-01T19:10:16.259Z,7.90
2022-10-01T19:12:58.585Z,7.90
2022-10-01T19:15:46.273Z,7.90
2022-10-01T19:18:16.114Z,7.80
2022-10-01T19:20:49.877Z,7.60
2022-10-01T19:23:29.918Z,7.60
2022-10-01T19:26:19.939Z,7.50
2022-10-01T19:29:04.530Z,7.40
2022-10-01T19:31:56.705Z,7.40
2022-10-01T19:34:45.534Z,7.30
2022-10-01T19:37:17.837Z,7.40
2022-10-01T19:39:46.125Z,7.50
2022-10-01T19:42:23.394Z,7.60
2022-10-01T19:45:18.593Z,7.70
2022-10-01T19:47:56.908Z,7.90
2022-10-01T19:50:33.691Z,7.90
2022-10-01T19:53:05.469Z,8.00
2022-10-01T19:55:38.808Z,8.00
2022-10-01T19:58:17.524Z,8.00
2022-10-01T20:00:49.560Z,8.10
2022-10-01T20:03:41.975Z,8.10
2022-10-01T20:06:33.264Z,8.00
2022-10-01T20:09:03.097Z,7.90
2022-10-01T20:11:51.581Z,7.80
2022-10-01T20:15:08.919Z,7.60
2022-10-01T20:18:03.634Z,7.60
2022-10-01T20:20:43.600Z,7.50
2022-10-01T20:23:40.345Z,7.50
2022-10-01T20:26:35.163Z,7.50
2022-10-01T20:29:41.684Z,7.30
2022-10-01T20:32:15.623Z,7.30
2022-10-01T20:34:57.695Z,7.10
2022-10-01T20:37:36.391Z,7.10
2022-10-01T20:40:34.480Z,7.00
2022-10-01T20:43:17.257Z,6.90
2022-10-01T20:45:47.160Z,6.90
2022-10-01T20:48:19.305Z,6.80
2022-10-01T20:50:53.954Z,6.90
2022-10-01T20:53:32.097Z,6.90
2022-10-01T20:56:10.191Z,7.00
2022-10-01T20:58:46.034Z,7.00
2022-10-01T21:01:23.943Z,6.90
2022-10-01T21:04:10.482Z,7.00
2022-10-01T21:06:44.024Z,6.90
2022-10-01T21:09:28.798Z,6.90
2022-10-01T21:12:22.772Z,7.00
2022-10-01T21:14:56.672Z,6.90
2022-10-01T21:17:44.379Z,7.00
2022-10-01T21:20:39.903Z,6.90
2022-10-01T21:23:50.941Z,6.80
2022-10-01T21:26:39.903Z,6.80
2022-10-01T21:29:46.624Z,6.80
2022-10-01T21:32:42.836Z,6.70
2022-10-01T21:35:40.384Z,6.70
2022-10-01T21:38:28.303Z,6.70
2022-10-01T21:42:59.570Z,6.50
2022-10-01T21:45:49.751Z,6.50
2022-10-01T21:48:19.331Z,6.30
2022-10-01T21:50:54.683Z,6.20
2022-10-01T21:53:25.407Z,6.10
2022-10-01T21:56:08.012Z,6.10
2022-10-01T21:58:49.767Z,5.90
2022-10-01T22:01:35.655Z,5.90
2022-10-01T22:04:35.310Z,5.80
2022-10-01T22:07:28.085Z,5.70
2022-10-01T22:10:16.180Z,5.70
2022-10-01T22:12:47.555Z,5.70
2022-10-01T22:15:23.168Z,5.80
2022-10-01T22:17:53.609Z,5.70
2022-10-01T22:20:28.925Z,5.70
2022-10-01T22:22:59.297Z,5.70
2022-10-01T22:25:29.313Z,5.60
2022-10-01T22:28:02.515Z,5.60
2022-10-01T22:30:33.677Z,5.60
2022-10-01T22:33:11.383Z,5.60
2022-10-01T22:35:45.414Z,5.60
2022-10-01T22:38:23.434Z,5.50
2022-10-01T22:41:10.889Z,5.50
2022-10-01T22:43:37.764Z,5.40
2022-10-01T22:46:04.475Z,5.40
2022-10-01T22:48:50.843Z,5.40
2022-10-01T22:52:05.007Z,5.40
2022-10-01T22:54:43.509Z,5.40
2022-10-01T22:57:44.279Z,5.40
2022-10-01T23:00:14.389Z,5.40
2022-10-01T23:03:18.516Z,5.50
2022-10-01T23:06:03.435Z,5.50
2022-10-01T23:08:33.480Z,5.70
2022-10-01T23:11:11.433Z,5.80
2022-10-01T23:13:41.178Z,5.90
2022-10-01T23:16:43.109Z,6.10
2022-10-01T23:19:16.818Z,6.30
2022-10-01T23:21:51.366Z,6.40
2022-10-01T23:24:33.032Z,6.40
2022-10-01T23:26:59.701Z,6.50
2022-10-01T23:29:47.957Z,6.50
2022-10-01T23:32:41.851Z,6.60
2022-10-01T23:35:20.809Z,6.70
2022-10-01T23:37:53.595Z,6.70
2022-10-01T23:40:23.218Z,6.70
2022-10-01T23:43:03.064Z,6.70
2022-10-01T23:45:41.150Z,6.80
2022-10-01T23:48:24.368Z,6.90
2022-10-01T23:51:07.244Z,6.80
2022-10-01T23:54:07.113Z,6.80
2022-10-01T23:56:58.740Z,6.70
2022-10-01T23:59:37.526Z,6.60
